• Join FlightAware (Why Join?)
  • Login
  • US Flag 
11:01PM EST


 

Airport Tracker/Info


-or-


 

Live Flight TrackerFlight Track Log ✈ N327PA ✈ 01-May-2013 ✈ KTUS - KDVT

Flight Track Log - Related Links

Times and Time Zones

All times are in EDT time to prevent confusion due to time zone crossing. See the N327PA flight status page for this flight to view local times or setup timezone preferences in your user account.

Time Position Orientation Groundspeed Altitude Reporting Facility
EDT Latitude Longitude Course Direction KTS MPH feet Rate Location/Type
10:46PM 32.1419 -110.9572 336° Northwest 66 76 3,600  Level Albuquerque Center
10:47PM 32.1592 -110.9575 359° North 67 77 4,100 480 Climbing Albuquerque Center
10:48PM 32.1725 -110.9714 319° Northwest 69 79 4,600 480 Climbing Albuquerque Center
10:48PM 32.1814 -110.9756 338° Northwest 75 86 4,800 480 Climbing Albuquerque Center
10:49PM 32.1886 -110.9872 306° West 70 81 5,100 480 Climbing Albuquerque Center
10:49PM 32.1969 -110.9894 347° North 68 78 5,300 360 Climbing Albuquerque Center
10:50PM 32.2042 -111.0008 307° West 71 82 5,500 360 Climbing Albuquerque Center
10:50PM 32.2122 -111.0028 348° North 68 78 5,700 480 Climbing Albuquerque Center
10:51PM 32.2194 -111.0142 307° West 71 82 6,000 360 Climbing Albuquerque Center
10:51PM 32.2278 -111.0178 340° North 70 81 6,100 480 Climbing Albuquerque Center
10:52PM 32.2375 -111.0294 315° West 74 85 6,500 360 Climbing Albuquerque Center
10:52PM 32.2447 -111.0322 342° North 73 84 6,500 120 Level Albuquerque Center
10:53PM 32.2639 -111.0492 323° Northwest 78 90 6,700 120 Climbing Albuquerque Center
10:54PM 32.2794 -111.0686 313° West 107 123 6,700 -120 Level Albuquerque Center
10:54PM 32.2875 -111.0711 345° North 93 107 6,600 -120 Descending Albuquerque Center
10:55PM 32.3164 -111.0997 320° Northwest 106 122 6,600  Level Albuquerque Center
10:56PM 32.3406 -111.1219 322° Northwest 109 125 6,600  Level Albuquerque Center
10:57PM 32.3647 -111.1450 321° Northwest 110 127 6,600  Level Albuquerque Center
10:58PM 32.3900 -111.1647 327° Northwest 110 127 6,600  Level Albuquerque Center
10:59PM 32.4156 -111.1853 326° Northwest 110 127 6,600 -60 Level Albuquerque Center
11:00PM 32.4403 -111.2064 324° Northwest 110 127 6,500  Descending Albuquerque Center
11:01PM 32.4636 -111.2306 319° Northwest 110 127 6,600  Climbing Albuquerque Center
11:02PM 32.4892 -111.2506 327° Northwest 110 127 6,600  Level Albuquerque Center
11:03PM 32.5158 -111.2689 330° Northwest 111 128 6,700  Climbing Albuquerque Center
11:04PM 32.5506 -111.2883 335° Northwest 113 130 6,600 -60 Descending Albuquerque Center
11:05PM 32.5758 -111.3081 327° Northwest 112 129 6,600  Level Albuquerque Center
11:06PM 32.5942 -111.3372 307° West 108 124 6,600  Level Albuquerque Center
11:07PM 32.6158 -111.3639 314° West 109 125 6,600 -60 Level Albuquerque Center
11:08PM 32.6406 -111.3881 321° Northwest 113 130 6,500 -60 Descending Albuquerque Center
11:10PM 32.6678 -111.4092 327° Northwest 117 135 6,500 -60 Level Albuquerque Center
11:11PM 32.6917 -111.4311 322° Northwest 111 128 6,400  Descending Albuquerque Center
11:12PM 32.7139 -111.4553 318° Northwest 108 124 6,500  Climbing Albuquerque Center
11:13PM 32.7378 -111.4811 318° Northwest 114 131 6,500  Level Albuquerque Center
11:14PM 32.7683 -111.5089 323° Northwest 117 135 6,500  Level Albuquerque Center
11:15PM 32.7961 -111.5286 329° Northwest 116 133 6,600  Climbing Albuquerque Center
11:16PM 32.8197 -111.5547 317° Northwest 115 132 6,500 -60 Descending Albuquerque Center
11:17PM 32.8472 -111.5756 328° Northwest 118 136 6,500  Level Albuquerque Center
11:18PM 32.8733 -111.5958 327° Northwest 112 129 6,500  Level Albuquerque Center
11:19PM 32.8997 -111.6167 326° Northwest 113 130 6,500 -120 Level Albuquerque Center
11:20PM 32.9272 -111.6381 327° Northwest 118 136 6,300 -240 Descending Albuquerque Center
11:21PM 32.9528 -111.6622 322° Northwest 117 135 6,100 -180 Descending Albuquerque Center
11:22PM 32.9833 -111.6875 325° Northwest 111 128 6,000  Descending Albuquerque Center
11:23PM 33.0042 -111.7147 312° West 111 128 6,100  Climbing Albuquerque Center
11:24PM 33.0286 -111.7353 325° Northwest 109 125 6,100  Level Albuquerque Center
11:25PM 33.0533 -111.7586 322° Northwest 111 128 6,100  Level Albuquerque Center
11:26PM 33.0731 -111.7825 315° West 103 119 6,100  Level Albuquerque Center
11:27PM 33.0958 -111.8058 319° Northwest 108 124 6,200  Climbing Albuquerque Center
11:28PM 33.1197 -111.8272 323° Northwest 109 125 6,200  Level Albuquerque Center
11:29PM 33.1436 -111.8486 323° Northwest 107 123 6,200 -60 Level Albuquerque Center
11:30PM 33.1742 -111.8742 325° Northwest 113 130 6,100 -60 Descending Albuquerque Center
11:31PM 33.2006 -111.8947 327° Northwest 114 131 6,100  Level Albuquerque Center
11:32PM 33.2250 -111.9167 323° Northwest 112 129 6,100 -540 Level Albuquerque Center
11:33PM 33.2472 -111.9381 321° Northwest 104 120 5,000  Descending Albuquerque Center
11:34PM 33.2758 -111.9614 326° Northwest 111 128 6,100 480 Climbing Albuquerque Center
11:35PM 33.3017 -111.9728 340° North 111 128 6,100  Level Albuquerque Center
11:36PM 33.3328 -111.9758 355° North 112 129 6,100  Level Albuquerque Center
11:37PM 33.3633 -111.9833 348° North 112 129 6,200  Climbing Albuquerque Center
11:38PM 33.3944 -111.9881 353° North 113 130 6,200 -60 Level Albuquerque Center
11:39PM 33.4325 -111.9872 North 113 130 6,100 -300 Descending Albuquerque Center
11:40PM 33.4653 -111.9881 359° North 118 136 5,600 -480 Descending Albuquerque Center
11:41PM 33.4994 -111.9936 352° North 124 143 5,200 -300 Descending Albuquerque Center
11:42PM 33.5306 -111.9925 North 119 137 5,100 -360 Descending Albuquerque Center
11:43PM 33.5611 -112.0044 342° North 119 137 4,500 -300 Descending Albuquerque Center
11:44PM 33.5872 -112.0231 329° Northwest 115 132 4,500  Level Albuquerque Center